sensor_id;sensor_type;location;lat;lon;timestamp;pressure;altitude;pressure_sealevel;temperature;humidity
53011;BME280;42803;55.762;38.084;2023-03-18T00:01:17;101227.91;;;-4.92;67.65
53011;BME280;42803;55.762;38.084;2023-03-18T00:03:46;101227.03;;;-4.87;67.55
53011;BME280;42803;55.762;38.084;2023-03-18T00:06:17;101234.19;;;-4.90;67.61
53011;BME280;42803;55.762;38.084;2023-03-18T00:08:48;101238.69;;;-4.99;67.63
53011;BME280;42803;55.762;38.084;2023-03-18T00:11:20;101236.56;;;-5.01;67.83
53011;BME280;42803;55.762;38.084;2023-03-18T00:13:49;101232.16;;;-5.02;67.90
53011;BME280;42803;55.762;38.084;2023-03-18T00:16:19;101241.16;;;-5.04;67.98
53011;BME280;42803;55.762;38.084;2023-03-18T00:18:48;101234.03;;;-5.01;67.96
53011;BME280;42803;55.762;38.084;2023-03-18T00:21:17;101238.69;;;-4.99;68.34
53011;BME280;42803;55.762;38.084;2023-03-18T00:23:48;101241.16;;;-5.04;68.30
53011;BME280;42803;55.762;38.084;2023-03-18T00:26:23;101249.91;;;-5.08;68.36
53011;BME280;42803;55.762;38.084;2023-03-18T00:28:55;101246.19;;;-5.10;68.21
53011;BME280;42803;55.762;38.084;2023-03-18T00:31:24;101245.84;;;-5.17;68.49
53011;BME280;42803;55.762;38.084;2023-03-18T00:33:54;101252.72;;;-5.22;68.71
53011;BME280;42803;55.762;38.084;2023-03-18T00:36:23;101247.63;;;-5.22;69.13
53011;BME280;42803;55.762;38.084;2023-03-18T00:38:55;101255.88;;;-5.28;69.07
53011;BME280;42803;55.762;38.084;2023-03-18T00:41:25;101262.22;;;-5.36;69.25
53011;BME280;42803;55.762;38.084;2023-03-18T00:43:55;101260.44;;;-5.31;69.30
53011;BME280;42803;55.762;38.084;2023-03-18T00:46:26;101262.06;;;-5.32;69.31
53011;BME280;42803;55.762;38.084;2023-03-18T00:48:58;101265.97;;;-5.34;69.45
53011;BME280;42803;55.762;38.084;2023-03-18T00:51:30;101268.81;;;-5.42;69.43
53011;BME280;42803;55.762;38.084;2023-03-18T00:54:02;101261.31;;;-5.36;69.74
53011;BME280;42803;55.762;38.084;2023-03-18T00:56:34;101267.84;;;-5.33;69.78
53011;BME280;42803;55.762;38.084;2023-03-18T00:59:05;101265.88;;;-5.40;69.49
53011;BME280;42803;55.762;38.084;2023-03-18T01:01:35;101267.72;;;-5.39;69.92
53011;BME280;42803;55.762;38.084;2023-03-18T01:04:06;101266.81;;;-5.39;70.14
53011;BME280;42803;55.762;38.084;2023-03-18T01:06:36;101273.91;;;-5.42;70.23
53011;BME280;42803;55.762;38.084;2023-03-18T01:09:09;101275.81;;;-5.41;70.13
53011;BME280;42803;55.762;38.084;2023-03-18T01:11:39;101275.81;;;-5.41;70.32
53011;BME280;42803;55.762;38.084;2023-03-18T01:14:08;101279.69;;;-5.43;70.42
53011;BME280;42803;55.762;38.084;2023-03-18T01:16:37;101281.13;;;-5.55;70.27
53011;BME280;42803;55.762;38.084;2023-03-18T01:19:06;101279.84;;;-5.63;70.66
53011;BME280;42803;55.762;38.084;2023-03-18T01:21:36;101288.41;;;-5.62;70.91
53011;BME280;42803;55.762;38.084;2023-03-18T01:24:05;101293.97;;;-5.49;70.92
53011;BME280;42803;55.762;38.084;2023-03-18T01:26:37;101292.00;;;-5.56;70.80
53011;BME280;42803;55.762;38.084;2023-03-18T01:29:06;101297.13;;;-5.66;70.98
53011;BME280;42803;55.762;38.084;2023-03-18T01:31:36;101299.44;;;-5.67;71.45
53011;BME280;42803;55.762;38.084;2023-03-18T01:34:11;101303.81;;;-5.66;71.45
53011;BME280;42803;55.762;38.084;2023-03-18T01:36:46;101301.03;;;-5.68;71.64
53011;BME280;42803;55.762;38.084;2023-03-18T01:39:15;101305.09;;;-5.74;71.62
53011;BME280;42803;55.762;38.084;2023-03-18T01:41:46;101314.25;;;-5.80;71.84
53011;BME280;42803;55.762;38.084;2023-03-18T01:44:23;101313.03;;;-5.82;72.21
53011;BME280;42803;55.762;38.084;2023-03-18T01:46:55;101320.41;;;-5.83;72.29
53011;BME280;42803;55.762;38.084;2023-03-18T01:49:30;101320.06;;;-5.91;72.65
53011;BME280;42803;55.762;38.084;2023-03-18T01:52:04;101321.88;;;-5.95;72.88
53011;BME280;42803;55.762;38.084;2023-03-18T01:54:37;101328.03;;;-5.99;73.08
53011;BME280;42803;55.762;38.084;2023-03-18T01:57:09;101330.44;;;-6.04;73.36
53011;BME280;42803;55.762;38.084;2023-03-18T01:59:40;101326.28;;;-6.04;73.79
53011;BME280;42803;55.762;38.084;2023-03-18T02:02:12;101335.00;;;-6.07;73.81
53011;BME280;42803;55.762;38.084;2023-03-18T02:04:44;101331.28;;;-6.09;73.85
53011;BME280;42803;55.762;38.084;2023-03-18T02:07:16;101336.53;;;-6.14;74.04
53011;BME280;42803;55.762;38.084;2023-03-18T02:09:47;101336.41;;;-6.19;74.14
53011;BME280;42803;55.762;38.084;2023-03-18T02:12:23;101332.00;;;-6.20;74.51
53011;BME280;42803;55.762;38.084;2023-03-18T02:14:57;101337.38;;;-6.28;74.82
53011;BME280;42803;55.762;38.084;2023-03-18T02:17:30;101344.72;;;-6.30;74.99
53011;BME280;42803;55.762;38.084;2023-03-18T02:20:07;101348.63;;;-6.32;75.17
53011;BME280;42803;55.762;38.084;2023-03-18T02:22:44;101350.88;;;-6.33;75.34
53011;BME280;42803;55.762;38.084;2023-03-18T02:25:18;101354.38;;;-6.33;75.34
53011;BME280;42803;55.762;38.084;2023-03-18T02:27:54;101358.94;;;-6.36;75.48
53011;BME280;42803;55.762;38.084;2023-03-18T02:30:26;101360.25;;;-6.38;75.70
53011;BME280;42803;55.762;38.084;2023-03-18T02:32:57;101355.09;;;-6.44;75.89
53011;BME280;42803;55.762;38.084;2023-03-18T02:35:28;101362.84;;;-6.48;76.14
53011;BME280;42803;55.762;38.084;2023-03-18T02:38:01;101365.66;;;-6.46;76.28
53011;BME280;42803;55.762;38.084;2023-03-18T02:40:33;101370.63;;;-6.52;76.67
53011;BME280;42803;55.762;38.084;2023-03-18T02:43:18;101365.25;;;-6.53;76.59
53011;BME280;42803;55.762;38.084;2023-03-18T02:48:43;101369.16;;;-6.55;76.80
53011;BME280;42803;55.762;38.084;2023-03-18T02:51:13;101381.16;;;-6.54;76.58
53011;BME280;42803;55.762;38.084;2023-03-18T02:53:44;101379.47;;;-6.59;76.88
53011;BME280;42803;55.762;38.084;2023-03-18T02:56:13;101386.53;;;-6.63;77.09
53011;BME280;42803;55.762;38.084;2023-03-18T02:58:45;101386.25;;;-6.64;77.77
53011;BME280;42803;55.762;38.084;2023-03-18T03:01:19;101395.22;;;-6.66;77.95
53011;BME280;42803;55.762;38.084;2023-03-18T03:03:49;101384.28;;;-6.71;78.15
53011;BME280;42803;55.762;38.084;2023-03-18T03:06:19;101390.28;;;-6.70;78.41
53011;BME280;42803;55.762;38.084;2023-03-18T03:08:48;101395.91;;;-6.77;78.68
53011;BME280;42803;55.762;38.084;2023-03-18T03:11:18;101392.03;;;-6.84;78.93
53011;BME280;42803;55.762;38.084;2023-03-18T03:13:49;101401.94;;;-6.86;79.35
53011;BME280;42803;55.762;38.084;2023-03-18T03:16:19;101398.84;;;-6.89;79.26
53011;BME280;42803;55.762;38.084;2023-03-18T03:18:49;101403.13;;;-6.94;79.68
53011;BME280;42803;55.762;38.084;2023-03-18T03:21:19;101405.69;;;-6.94;79.92
53011;BME280;42803;55.762;38.084;2023-03-18T03:23:49;101402.59;;;-6.97;80.11
53011;BME280;42803;55.762;38.084;2023-03-18T03:26:17;101405.25;;;-6.91;80.17
53011;BME280;42803;55.762;38.084;2023-03-18T03:28:49;101399.94;;;-6.93;80.14
53011;BME280;42803;55.762;38.084;2023-03-18T03:31:20;101403.13;;;-6.94;80.11
53011;BME280;42803;55.762;38.084;2023-03-18T03:33:50;101403.00;;;-6.90;80.23
53011;BME280;42803;55.762;38.084;2023-03-18T03:36:19;101406.19;;;-6.91;80.20
53011;BME280;42803;55.762;38.084;2023-03-18T03:38:48;101408.06;;;-6.90;80.25
53011;BME280;42803;55.762;38.084;2023-03-18T03:41:17;101403.38;;;-6.92;80.08
53011;BME280;42803;55.762;38.084;2023-03-18T03:43:49;101405.38;;;-6.95;80.42
53011;BME280;42803;55.762;38.084;2023-03-18T03:46:18;101408.06;;;-6.99;80.71
53011;BME280;42803;55.762;38.084;2023-03-18T03:48:48;101414.91;;;-6.94;81.01
53011;BME280;42803;55.762;38.084;2023-03-18T03:51:17;101419.31;;;-6.93;81.02
53011;BME280;42803;55.762;38.084;2023-03-18T03:53:46;101416.75;;;-6.93;81.36
53011;BME280;42803;55.762;38.084;2023-03-18T03:56:15;101415.69;;;-6.90;81.51
53011;BME280;42803;55.762;38.084;2023-03-18T03:58:44;101418.34;;;-6.84;81.22
53011;BME280;42803;55.762;38.084;2023-03-18T04:01:17;101407.66;;;-6.77;80.96
53011;BME280;42803;55.762;38.084;2023-03-18T04:03:47;101413.53;;;-6.73;81.09
53011;BME280;42803;55.762;38.084;2023-03-18T04:06:17;101417.84;;;-6.68;80.98
53011;BME280;42803;55.762;38.084;2023-03-18T04:08:55;101415.16;;;-6.64;80.97
53011;BME280;42803;55.762;38.084;2023-03-18T04:11:25;101416.19;;;-6.57;80.50
53011;BME280;42803;55.762;38.084;2023-03-18T04:13:54;101415.91;;;-6.49;80.21
53011;BME280;42803;55.762;38.084;2023-03-18T04:16:24;101420.69;;;-6.41;80.02
53011;BME280;42803;55.762;38.084;2023-03-18T04:18:54;101423.63;;;-6.34;79.83
53011;BME280;42803;55.762;38.084;2023-03-18T04:21:23;101420.41;;;-6.23;79.42
53011;BME280;42803;55.762;38.084;2023-03-18T04:23:55;101424.25;;;-6.16;79.27
53011;BME280;42803;55.762;38.084;2023-03-18T04:26:24;101424.75;;;-6.03;78.85
53011;BME280;42803;55.762;38.084;2023-03-18T04:28:58;101431.81;;;-5.96;78.83
53011;BME280;42803;55.762;38.084;2023-03-18T04:31:29;101428.28;;;-5.87;78.19
53011;BME280;42803;55.762;38.084;2023-03-18T04:33:59;101432.00;;;-5.75;77.90
53011;BME280;42803;55.762;38.084;2023-03-18T04:36:28;101436.50;;;-5.69;77.68
53011;BME280;42803;55.762;38.084;2023-03-18T04:38:57;101434.06;;;-5.63;77.14
53011;BME280;42803;55.762;38.084;2023-03-18T04:41:27;101427.59;;;-5.51;77.14
53011;BME280;42803;55.762;38.084;2023-03-18T04:43:58;101436.09;;;-5.41;76.59
53011;BME280;42803;55.762;38.084;2023-03-18T04:46:38;101436.97;;;-5.31;76.33
53011;BME280;42803;55.762;38.084;2023-03-18T04:49:08;101440.16;;;-5.22;76.08
53011;BME280;42803;55.762;38.084;2023-03-18T04:51:37;101435.66;;;-5.13;76.18
53011;BME280;42803;55.762;38.084;2023-03-18T04:54:15;101440.84;;;-5.08;75.75
53011;BME280;42803;55.762;38.084;2023-03-18T04:56:45;101428.91;;;-5.03;75.82
53011;BME280;42803;55.762;38.084;2023-03-18T04:59:14;101434.19;;;-4.92;75.88
53011;BME280;42803;55.762;38.084;2023-03-18T05:01:47;101442.13;;;-4.85;75.52
53011;BME280;42803;55.762;38.084;2023-03-18T05:04:17;101446.94;;;-4.77;75.45
53011;BME280;42803;55.762;38.084;2023-03-18T05:06:51;101446.06;;;-4.72;75.06
53011;BME280;42803;55.762;38.084;2023-03-18T05:09:27;101448.34;;;-4.58;75.10
53011;BME280;42803;55.762;38.084;2023-03-18T05:11:56;101458.66;;;-4.52;74.89
53011;BME280;42803;55.762;38.084;2023-03-18T05:14:30;101461.34;;;-4.41;74.82
53011;BME280;42803;55.762;38.084;2023-03-18T05:17:02;101448.03;;;-4.34;74.34
53011;BME280;42803;55.762;38.084;2023-03-18T05:19:34;101456.50;;;-4.24;74.12
53011;BME280;42803;55.762;38.084;2023-03-18T05:22:16;101458.44;;;-4.18;73.76
53011;BME280;42803;55.762;38.084;2023-03-18T05:24:49;101456.66;;;-4.13;73.27
53011;BME280;42803;55.762;38.084;2023-03-18T05:27:20;101463.94;;;-4.05;73.18
53011;BME280;42803;55.762;38.084;2023-03-18T05:30:00;101465.19;;;-3.97;73.21
53011;BME280;42803;55.762;38.084;2023-03-18T05:32:44;101462.97;;;-3.90;73.11
53011;BME280;42803;55.762;38.084;2023-03-18T05:35:13;101468.59;;;-3.87;72.54
53011;BME280;42803;55.762;38.084;2023-03-18T05:37:47;101462.41;;;-3.78;72.52
53011;BME280;42803;55.762;38.084;2023-03-18T05:40:17;101460.47;;;-3.69;72.15
53011;BME280;42803;55.762;38.084;2023-03-18T05:43:15;101466.50;;;-3.69;71.48
53011;BME280;42803;55.762;38.084;2023-03-18T05:45:56;101466.31;;;-3.64;71.39
53011;BME280;42803;55.762;38.084;2023-03-18T05:48:39;101463.50;;;-3.45;71.12
53011;BME280;42803;55.762;38.084;2023-03-18T05:51:09;101463.63;;;-3.34;71.13
53011;BME280;42803;55.762;38.084;2023-03-18T05:53:39;101469.09;;;-3.21;71.09
53011;BME280;42803;55.762;38.084;2023-03-18T05:56:17;101466.09;;;-3.19;70.70
53011;BME280;42803;55.762;38.084;2023-03-18T05:58:50;101466.09;;;-2.98;70.45
53011;BME280;42803;55.762;38.084;2023-03-18T06:01:26;101471.19;;;-2.98;69.86
53011;BME280;42803;55.762;38.084;2023-03-18T06:03:59;101470.84;;;-2.84;68.91
53011;BME280;42803;55.762;38.084;2023-03-18T06:06:30;101470.59;;;-2.85;69.56
53011;BME280;42803;55.762;38.084;2023-03-18T06:08:59;101462.75;;;-2.76;69.18
53011;BME280;42803;55.762;38.084;2023-03-18T06:11:28;101476.25;;;-2.77;68.10
53011;BME280;42803;55.762;38.084;2023-03-18T06:13:57;101474.41;;;-2.72;67.92
53011;BME280;42803;55.762;38.084;2023-03-18T06:16:27;101477.56;;;-2.58;67.80
53011;BME280;42803;55.762;38.084;2023-03-18T06:22:15;101481.03;;;-1.82;67.53
53011;BME280;42803;55.762;38.084;2023-03-18T06:24:44;101483.44;;;-1.66;66.35
53011;BME280;42803;55.762;38.084;2023-03-18T06:27:20;101481.13;;;-1.59;65.99
53011;BME280;42803;55.762;38.084;2023-03-18T06:30:00;101481.19;;;-1.48;65.40
53011;BME280;42803;55.762;38.084;2023-03-18T06:32:38;101478.66;;;-1.37;65.35
53011;BME280;42803;55.762;38.084;2023-03-18T06:35:12;101470.75;;;-1.33;63.86
53011;BME280;42803;55.762;38.084;2023-03-18T06:37:44;101471.69;;;-1.15;63.79
53011;BME280;42803;55.762;38.084;2023-03-18T06:40:14;101470.34;;;-0.91;63.86
53011;BME280;42803;55.762;38.084;2023-03-18T06:42:45;101474.78;;;-0.79;64.00
53011;BME280;42803;55.762;38.084;2023-03-18T06:45:28;101479.88;;;-0.73;62.55
53011;BME280;42803;55.762;38.084;2023-03-18T06:48:03;101478.72;;;-0.69;63.37
53011;BME280;42803;55.762;38.084;2023-03-18T06:50:44;101477.81;;;-0.76;62.01
53011;BME280;42803;55.762;38.084;2023-03-18T06:53:22;101471.28;;;-0.57;62.65
53011;BME280;42803;55.762;38.084;2023-03-18T06:55:52;101474.53;;;-0.41;61.53
53011;BME280;42803;55.762;38.084;2023-03-18T06:58:27;101476.41;;;-0.45;60.61
53011;BME280;42803;55.762;38.084;2023-03-18T07:01:02;101472.84;;;-0.23;60.22
53011;BME280;42803;55.762;38.084;2023-03-18T07:03:37;101473.53;;;-0.13;60.14
53011;BME280;42803;55.762;38.084;2023-03-18T07:06:08;101475.13;;;0.03;60.00
53011;BME280;42803;55.762;38.084;2023-03-18T07:08:52;101483.06;;;-0.01;59.15
53011;BME280;42803;55.762;38.084;2023-03-18T07:11:27;101477.00;;;0.04;59.49
53011;BME280;42803;55.762;38.084;2023-03-18T07:14:09;101479.28;;;0.14;60.08
53011;BME280;42803;55.762;38.084;2023-03-18T07:17:08;101477.59;;;0.31;59.03
53011;BME280;42803;55.762;38.084;2023-03-18T07:19:39;101486.19;;;0.43;60.44
53011;BME280;42803;55.762;38.084;2023-03-18T07:22:09;101481.94;;;0.49;59.04
53011;BME280;42803;55.762;38.084;2023-03-18T07:24:40;101491.03;;;0.58;58.99
53011;BME280;42803;55.762;38.084;2023-03-18T07:27:09;101493.34;;;0.62;58.15
53011;BME280;42803;55.762;38.084;2023-03-18T07:29:40;101493.34;;;0.62;58.80
53011;BME280;42803;55.762;38.084;2023-03-18T07:32:09;101495.78;;;0.85;58.51
53011;BME280;42803;55.762;38.084;2023-03-18T07:34:38;101492.03;;;0.83;56.41
53011;BME280;42803;55.762;38.084;2023-03-18T07:37:08;101494.78;;;0.95;56.67
53011;BME280;42803;55.762;38.084;2023-03-18T07:39:37;101491.00;;;0.99;56.38
53011;BME280;42803;55.762;38.084;2023-03-18T07:42:08;101495.41;;;1.06;56.08
53011;BME280;42803;55.762;38.084;2023-03-18T07:44:37;101494.66;;;1.12;54.27
53011;BME280;42803;55.762;38.084;2023-03-18T07:47:06;101487.06;;;1.31;54.18
53011;BME280;42803;55.762;38.084;2023-03-18T07:49:35;101480.88;;;1.41;54.32
53011;BME280;42803;55.762;38.084;2023-03-18T07:52:04;101489.72;;;1.49;53.81
53011;BME280;42803;55.762;38.084;2023-03-18T07:54:33;101482.84;;;1.55;54.13
53011;BME280;42803;55.762;38.084;2023-03-18T07:57:03;101483.56;;;1.54;54.38
53011;BME280;42803;55.762;38.084;2023-03-18T07:59:34;101487.38;;;1.45;53.17
53011;BME280;42803;55.762;38.084;2023-03-18T08:02:04;101486.13;;;1.30;53.08
53011;BME280;42803;55.762;38.084;2023-03-18T08:04:34;101482.53;;;1.11;53.82
53011;BME280;42803;55.762;38.084;2023-03-18T08:07:04;101482.19;;;1.27;53.75
53011;BME280;42803;55.762;38.084;2023-03-18T08:09:33;101485.59;;;1.62;53.60
53011;BME280;42803;55.762;38.084;2023-03-18T08:12:03;101480.50;;;1.81;52.68
53011;BME280;42803;55.762;38.084;2023-03-18T08:14:32;101480.69;;;1.88;51.31
53011;BME280;42803;55.762;38.084;2023-03-18T08:17:02;101485.31;;;1.90;50.63
53011;BME280;42803;55.762;38.084;2023-03-18T08:19:31;101466.56;;;2.15;49.85
53011;BME280;42803;55.762;38.084;2023-03-18T08:22:00;101481.53;;;2.18;50.75
53011;BME280;42803;55.762;38.084;2023-03-18T08:24:30;101473.72;;;2.24;51.19
53011;BME280;42803;55.762;38.084;2023-03-18T08:26:59;101480.56;;;2.17;48.21
53011;BME280;42803;55.762;38.084;2023-03-18T08:29:28;101475.28;;;2.29;48.36
53011;BME280;42803;55.762;38.084;2023-03-18T08:31:57;101478.44;;;2.39;48.21
53011;BME280;42803;55.762;38.084;2023-03-18T08:34:28;101481.47;;;2.60;47.49
53011;BME280;42803;55.762;38.084;2023-03-18T08:36:57;101473.47;;;2.77;48.01
53011;BME280;42803;55.762;38.084;2023-03-18T08:39:27;101477.72;;;2.58;46.87
53011;BME280;42803;55.762;38.084;2023-03-18T08:41:57;101481.00;;;2.39;47.69
53011;BME280;42803;55.762;38.084;2023-03-18T08:44:28;101483.44;;;2.32;48.56
53011;BME280;42803;55.762;38.084;2023-03-18T08:46:57;101479.56;;;2.59;47.38
53011;BME280;42803;55.762;38.084;2023-03-18T08:49:28;101482.53;;;2.50;46.49
53011;BME280;42803;55.762;38.084;2023-03-18T08:51:57;101474.59;;;2.48;47.47
53011;BME280;42803;55.762;38.084;2023-03-18T08:54:26;101476.66;;;2.51;47.78
53011;BME280;42803;55.762;38.084;2023-03-18T08:56:55;101473.56;;;2.53;47.21
53011;BME280;42803;55.762;38.084;2023-03-18T08:59:25;101467.56;;;2.47;46.44
53011;BME280;42803;55.762;38.084;2023-03-18T09:01:55;101476.09;;;2.40;46.08
53011;BME280;42803;55.762;38.084;2023-03-18T09:04:24;101467.97;;;2.32;46.43
53011;BME280;42803;55.762;38.084;2023-03-18T09:06:55;101471.28;;;2.49;47.46
53011;BME280;42803;55.762;38.084;2023-03-18T09:09:24;101468.13;;;2.57;45.92
53011;BME280;42803;55.762;38.084;2023-03-18T09:12:09;101465.41;;;2.68;46.07
53011;BME280;42803;55.762;38.084;2023-03-18T09:14:40;101461.34;;;2.89;45.74
53011;BME280;42803;55.762;38.084;2023-03-18T09:17:10;101461.16;;;2.87;46.48
53011;BME280;42803;55.762;38.084;2023-03-18T09:19:40;101460.38;;;2.76;46.66
53011;BME280;42803;55.762;38.084;2023-03-18T09:22:10;101456.34;;;2.78;46.24
53011;BME280;42803;55.762;38.084;2023-03-18T09:24:39;101452.88;;;2.90;46.79
53011;BME280;42803;55.762;38.084;2023-03-18T09:27:08;101451.59;;;2.99;46.55
53011;BME280;42803;55.762;38.084;2023-03-18T09:29:37;101447.56;;;3.01;45.49
53011;BME280;42803;55.762;38.084;2023-03-18T09:32:07;101450.41;;;2.84;44.41
53011;BME280;42803;55.762;38.084;2023-03-18T09:34:36;101447.81;;;3.15;45.05
53011;BME280;42803;55.762;38.084;2023-03-18T09:37:05;101446.75;;;3.52;45.38
53011;BME280;42803;55.762;38.084;2023-03-18T09:39:35;101447.84;;;3.54;45.30
53011;BME280;42803;55.762;38.084;2023-03-18T09:42:33;101437.72;;;3.42;44.35
53011;BME280;42803;55.762;38.084;2023-03-18T09:45:18;101441.66;;;3.46;44.82
53011;BME280;42803;55.762;38.084;2023-03-18T09:48:20;101429.25;;;3.95;45.19
53011;BME280;42803;55.762;38.084;2023-03-18T09:50:58;101428.25;;;4.32;43.19
53011;BME280;42803;55.762;38.084;2023-03-18T09:53:39;101430.69;;;4.05;43.76
53011;BME280;42803;55.762;38.084;2023-03-18T09:56:15;101425.22;;;3.97;44.59
53011;BME280;42803;55.762;38.084;2023-03-18T09:58:50;101419.38;;;3.59;43.27
53011;BME280;42803;55.762;38.084;2023-03-18T10:01:22;101417.41;;;3.64;44.69
53011;BME280;42803;55.762;38.084;2023-03-18T10:03:57;101415.13;;;3.60;44.21
53011;BME280;42803;55.762;38.084;2023-03-18T10:06:29;101405.53;;;3.72;45.02
53011;BME280;42803;55.762;38.084;2023-03-18T10:09:05;101407.47;;;3.80;43.44
53011;BME280;42803;55.762;38.084;2023-03-18T10:11:40;101399.09;;;3.88;43.24
53011;BME280;42803;55.762;38.084;2023-03-18T10:14:21;101413.38;;;3.79;43.50
53011;BME280;42803;55.762;38.084;2023-03-18T10:16:59;101393.63;;;3.79;43.80
53011;BME280;42803;55.762;38.084;2023-03-18T10:19:32;101399.50;;;3.91;42.26
53011;BME280;42803;55.762;38.084;2023-03-18T10:22:18;101401.06;;;3.83;43.05
53011;BME280;42803;55.762;38.084;2023-03-18T10:24:58;101392.59;;;3.84;42.00
53011;BME280;42803;55.762;38.084;2023-03-18T10:27:40;101387.00;;;3.81;42.74
53011;BME280;42803;55.762;38.084;2023-03-18T10:30:26;101384.19;;;4.05;41.47
53011;BME280;42803;55.762;38.084;2023-03-18T10:33:04;101378.47;;;4.21;41.80
53011;BME280;42803;55.762;38.084;2023-03-18T10:35:39;101376.31;;;4.11;41.04
53011;BME280;42803;55.762;38.084;2023-03-18T10:38:17;101378.47;;;4.08;40.86
53011;BME280;42803;55.762;38.084;2023-03-18T10:40:49;101371.97;;;4.04;41.47
53011;BME280;42803;55.762;38.084;2023-03-18T10:43:23;101375.19;;;3.96;40.68
53011;BME280;42803;55.762;38.084;2023-03-18T10:45:59;101369.81;;;4.07;40.89
53011;BME280;42803;55.762;38.084;2023-03-18T10:48:31;101370.72;;;4.08;41.38
53011;BME280;42803;55.762;38.084;2023-03-18T10:51:08;101362.78;;;4.06;40.32
53011;BME280;42803;55.762;38.084;2023-03-18T10:53:44;101365.88;;;4.17;39.89
53011;BME280;42803;55.762;38.084;2023-03-18T10:56:15;101369.66;;;4.26;39.57
53011;BME280;42803;55.762;38.084;2023-03-18T10:58:45;101359.63;;;4.54;40.35
53011;BME280;42803;55.762;38.084;2023-03-18T11:01:16;101367.47;;;4.49;39.43
53011;BME280;42803;55.762;38.084;2023-03-18T11:03:51;101368.00;;;4.46;39.56
53011;BME280;42803;55.762;38.084;2023-03-18T11:06:23;101359.34;;;4.66;40.32
53011;BME280;42803;55.762;38.084;2023-03-18T11:09:04;101367.06;;;4.46;40.06
53011;BME280;42803;55.762;38.084;2023-03-18T11:11:38;101352.31;;;4.45;39.45
53011;BME280;42803;55.762;38.084;2023-03-18T11:14:13;101351.63;;;4.33;39.33
53011;BME280;42803;55.762;38.084;2023-03-18T11:16:46;101352.56;;;4.33;40.26
53011;BME280;42803;55.762;38.084;2023-03-18T11:19:25;101355.13;;;4.33;40.13
53011;BME280;42803;55.762;38.084;2023-03-18T11:22:00;101348.47;;;4.48;40.92
53011;BME280;42803;55.762;38.084;2023-03-18T11:24:31;101349.78;;;4.72;40.08
53011;BME280;42803;55.762;38.084;2023-03-18T11:27:23;101344.16;;;4.81;39.00
53011;BME280;42803;55.762;38.084;2023-03-18T11:29:58;101338.63;;;4.85;40.36
53011;BME280;42803;55.762;38.084;2023-03-18T11:32:31;101340.66;;;5.08;40.68
53011;BME280;42803;55.762;38.084;2023-03-18T11:35:02;101340.38;;;5.19;39.52
53011;BME280;42803;55.762;38.084;2023-03-18T11:37:33;101333.72;;;4.94;39.00
53011;BME280;42803;55.762;38.084;2023-03-18T11:40:23;101335.75;;;4.70;38.35
53011;BME280;42803;55.762;38.084;2023-03-18T11:42:56;101330.28;;;4.81;39.89
53011;BME280;42803;55.762;38.084;2023-03-18T11:45:37;101334.94;;;4.63;40.64
53011;BME280;42803;55.762;38.084;2023-03-18T11:48:14;101334.25;;;4.72;40.59
53011;BME280;42803;55.762;38.084;2023-03-18T11:54:05;101325.66;;;4.78;41.48
53011;BME280;42803;55.762;38.084;2023-03-18T11:56:41;101330.69;;;4.64;38.46
53011;BME280;42803;55.762;38.084;2023-03-18T11:59:42;101334.19;;;4.64;38.08
53011;BME280;42803;55.762;38.084;2023-03-18T12:02:33;101329.34;;;4.60;36.86
53011;BME280;42803;55.762;38.084;2023-03-18T12:05:25;101331.22;;;4.42;37.18
53011;BME280;42803;55.762;38.084;2023-03-18T12:08:05;101324.03;;;4.46;37.30
53011;BME280;42803;55.762;38.084;2023-03-18T12:10:40;101317.28;;;4.54;37.90
53011;BME280;42803;55.762;38.084;2023-03-18T12:13:29;101323.69;;;4.43;37.59
53011;BME280;42803;55.762;38.084;2023-03-18T12:16:08;101315.50;;;4.40;37.88
53011;BME280;42803;55.762;38.084;2023-03-18T12:18:51;101319.75;;;4.59;36.38
53011;BME280;42803;55.762;38.084;2023-03-18T12:21:38;101306.66;;;4.85;37.55
53011;BME280;42803;55.762;38.084;2023-03-18T12:24:25;101311.97;;;4.79;37.61
53011;BME280;42803;55.762;38.084;2023-03-18T12:27:02;101306.00;;;4.53;38.20
53011;BME280;42803;55.762;38.084;2023-03-18T12:32:25;101304.84;;;4.44;38.31
53011;BME280;42803;55.762;38.084;2023-03-18T12:35:18;101298.16;;;4.39;39.09
53011;BME280;42803;55.762;38.084;2023-03-18T12:38:12;101297.41;;;4.40;38.37
53011;BME280;42803;55.762;38.084;2023-03-18T12:40:56;101291.72;;;4.62;37.84
53011;BME280;42803;55.762;38.084;2023-03-18T12:43:49;101298.47;;;4.55;38.76
53011;BME280;42803;55.762;38.084;2023-03-18T12:46:25;101291.72;;;4.62;36.98
53011;BME280;42803;55.762;38.084;2023-03-18T12:49:01;101287.25;;;4.61;36.74
53011;BME280;42803;55.762;38.084;2023-03-18T12:51:41;101283.06;;;4.69;36.23
53011;BME280;42803;55.762;38.084;2023-03-18T12:54:17;101283.56;;;4.39;36.57
53011;BME280;42803;55.762;38.084;2023-03-18T12:56:49;101276.06;;;4.48;37.25
53011;BME280;42803;55.762;38.084;2023-03-18T12:59:24;101278.72;;;4.55;37.31
53011;BME280;42803;55.762;38.084;2023-03-18T13:02:04;101275.25;;;4.42;37.70
53011;BME280;42803;55.762;38.084;2023-03-18T13:04:52;101274.19;;;4.27;37.75
53011;BME280;42803;55.762;38.084;2023-03-18T13:07:25;101272.09;;;4.37;37.59
53011;BME280;42803;55.762;38.084;2023-03-18T13:10:00;101270.81;;;4.41;38.54
53011;BME280;42803;55.762;38.084;2023-03-18T13:12:32;101276.84;;;4.34;37.01
53011;BME280;42803;55.762;38.084;2023-03-18T13:15:10;101266.19;;;4.19;35.22
53011;BME280;42803;55.762;38.084;2023-03-18T13:17:46;101264.84;;;4.15;34.30
53011;BME280;42803;55.762;38.084;2023-03-18T13:20:20;101262.09;;;4.13;34.67
53011;BME280;42803;55.762;38.084;2023-03-18T13:23:07;101260.56;;;4.08;33.14
53011;BME280;42803;55.762;38.084;2023-03-18T13:25:50;101262.41;;;4.09;32.66
53011;BME280;42803;55.762;38.084;2023-03-18T13:28:47;101254.06;;;4.05;33.00
53011;BME280;42803;55.762;38.084;2023-03-18T13:31:26;101259.69;;;3.95;32.58